KNXF

MCOLF Camp Pendleton (Red Beach) Airport

Oceanside, California, USA
METAR KNXF 230956Z AUTO 08006KT 10SM OVC026 16/13 A2994 RMK AO2 SLP222 T01560128 $
Observed Flight Rules
May-23 @ 09:56 UTC (an hour ago) Marginal Visual Flight Rules
Wind Visibility Clouds
80° at 6 knots 10 miles
  • Overcast at 2,600' AGL
Temperatures Readings
Current 16°C / 61°F
Dewpoint 13°C / 55°F
Humidity 83%
Altimeter 29.94" Hg
Pressure 1022.2 hPa
Elevation 27
METAR KNXF 230956Z AUTO 08006KT 10SM OVC026 16/13 A2994 RMK AO2 SLP222 T01560128 $
Observed Flight Rules
May-23 @ 09:56 UTC
(an hour ago)
MVFR
Wind Visibility
80° at 6 knots 10 miles
Clouds
  • Overcast at 2,600' AGL
Temperature Dewpoint
16°C / 61°F 13°C / 55°F
Humidity Altimeter Pressure
83% 29.94" Hg 1022.2 hPa